createdAt,value
2018-02-18T00:02:01.789Z,66.20
2018-02-18T00:04:28.159Z,66.30
2018-02-18T00:06:54.393Z,66.70
2018-02-18T00:09:20.569Z,66.70
2018-02-18T00:11:47.459Z,67.00
2018-02-18T00:14:15.555Z,66.50
2018-02-18T00:16:42.566Z,66.80
2018-02-18T00:19:08.790Z,66.80
2018-02-18T00:21:34.988Z,67.00
2018-02-18T00:24:01.195Z,66.90
2018-02-18T00:26:27.612Z,67.10
2018-02-18T00:28:53.784Z,66.20
2018-02-18T00:31:20.054Z,66.30
2018-02-18T00:33:46.213Z,66.50
2018-02-18T00:36:12.444Z,66.40
2018-02-18T00:38:38.627Z,66.60
2018-02-18T00:41:04.849Z,66.30
2018-02-18T00:43:31.034Z,66.60
2018-02-18T00:45:57.304Z,66.40
2018-02-18T00:48:23.495Z,66.80
2018-02-18T00:50:49.747Z,66.70
2018-02-18T00:53:15.958Z,67.00
2018-02-18T00:55:42.173Z,67.80
2018-02-18T00:58:09.147Z,66.80
2018-02-18T01:00:35.548Z,66.80
2018-02-18T01:03:01.762Z,66.60
2018-02-18T01:05:28.011Z,66.70
2018-02-18T01:07:54.429Z,66.90
2018-02-18T01:10:20.720Z,66.90
2018-02-18T01:12:46.954Z,66.80
2018-02-18T01:15:13.407Z,66.60
2018-02-18T01:17:39.629Z,66.80
2018-02-18T01:20:05.830Z,66.80
2018-02-18T01:22:32.150Z,66.60
2018-02-18T01:24:58.430Z,66.80
2018-02-18T01:27:24.684Z,66.50
2018-02-18T01:29:50.989Z,67.20
2018-02-18T01:32:17.210Z,66.70
2018-02-18T01:34:43.444Z,67.30
2018-02-18T01:37:09.845Z,67.20
2018-02-18T01:39:36.069Z,67.50
2018-02-18T01:42:03.051Z,67.60
2018-02-18T01:44:29.287Z,67.60
2018-02-18T01:46:55.596Z,68.00
2018-02-18T01:49:21.844Z,67.20
2018-02-18T01:51:48.028Z,67.30
2018-02-18T01:54:14.341Z,67.70
2018-02-18T01:56:40.545Z,67.70
2018-02-18T01:59:06.797Z,67.70
2018-02-18T02:01:34.577Z,66.70
2018-02-18T02:04:01.657Z,66.60
2018-02-18T02:06:27.977Z,66.60
2018-02-18T02:08:54.933Z,66.90
2018-02-18T02:11:21.992Z,67.00
2018-02-18T02:13:49.072Z,66.60
2018-02-18T02:16:15.290Z,66.60
2018-02-18T02:18:42.220Z,66.90
2018-02-18T02:21:08.482Z,66.90
2018-02-18T02:23:35.444Z,66.90
2018-02-18T02:26:02.396Z,67.50
2018-02-18T02:28:28.608Z,67.50
2018-02-18T02:30:54.985Z,67.30
2018-02-18T02:33:21.233Z,67.60
2018-02-18T02:35:47.437Z,67.40
2018-02-18T02:38:13.947Z,67.50
2018-02-18T02:40:40.120Z,67.00
2018-02-18T02:43:06.356Z,67.00
2018-02-18T02:45:33.730Z,66.80
2018-02-18T02:47:59.931Z,66.70
2018-02-18T02:50:26.145Z,66.90
2018-02-18T02:52:53.078Z,66.30
2018-02-18T02:55:19.434Z,66.30
2018-02-18T02:57:45.621Z,67.20
2018-02-18T03:00:11.824Z,66.50
2018-02-18T03:02:38.198Z,66.50
2018-02-18T03:05:04.372Z,66.80
2018-02-18T03:07:30.583Z,66.70
2018-02-18T03:09:57.104Z,66.90
2018-02-18T03:12:23.336Z,67.00
2018-02-18T03:14:49.517Z,66.60
2018-02-18T03:17:16.020Z,66.50
2018-02-18T03:19:42.229Z,66.80
2018-02-18T03:22:08.411Z,66.60
2018-02-18T03:24:35.322Z,66.40
2018-02-18T03:27:01.528Z,65.90
2018-02-18T03:29:27.836Z,66.60
2018-02-18T03:31:54.344Z,66.50
2018-02-18T03:34:20.592Z,66.70
2018-02-18T03:36:47.588Z,66.40
2018-02-18T03:39:13.825Z,66.40
2018-02-18T03:41:40.215Z,65.90
2018-02-18T03:44:06.432Z,66.20
2018-02-18T03:46:33.454Z,65.50
2018-02-18T03:49:00.745Z,65.50
2018-02-18T03:51:27.844Z,66.20
2018-02-18T03:53:54.116Z,66.20
2018-02-18T03:56:20.330Z,65.90
2018-02-18T03:58:46.713Z,66.30
2018-02-18T04:01:12.972Z,65.80
2018-02-18T04:03:39.179Z,65.50
2018-02-18T04:06:05.985Z,65.80
2018-02-18T04:08:33.153Z,66.30
2018-02-18T04:10:59.376Z,66.30
2018-02-18T04:13:25.597Z,65.80
2018-02-18T04:15:53.025Z,65.30
2018-02-18T04:18:19.256Z,65.60
2018-02-18T04:20:45.441Z,65.10
2018-02-18T04:23:11.709Z,65.00
2018-02-18T04:25:37.885Z,64.90
2018-02-18T04:28:04.125Z,65.40
2018-02-18T04:30:30.419Z,64.90
2018-02-18T04:32:56.658Z,65.30
2018-02-18T04:35:23.602Z,65.40
2018-02-18T04:37:49.866Z,65.40
2018-02-18T04:40:16.531Z,65.10
2018-02-18T04:42:42.781Z,65.20
2018-02-18T04:45:09.745Z,65.10
2018-02-18T04:47:36.113Z,65.00
2018-02-18T04:50:02.329Z,65.60
2018-02-18T04:52:28.545Z,65.80
2018-02-18T04:54:55.489Z,64.70
2018-02-18T04:57:21.968Z,64.70
2018-02-18T04:59:48.358Z,65.60
2018-02-18T05:02:14.556Z,65.60
2018-02-18T05:04:41.607Z,65.60
2018-02-18T05:07:10.373Z,65.20
2018-02-18T05:09:36.608Z,65.20
2018-02-18T05:12:02.883Z,65.10
2018-02-18T05:14:29.097Z,64.80
2018-02-18T05:16:55.306Z,65.20
2018-02-18T05:19:21.541Z,64.90
2018-02-18T05:21:47.941Z,64.40
2018-02-18T05:24:14.381Z,65.50
2018-02-18T05:26:40.620Z,64.90
2018-02-18T05:29:06.832Z,65.70
2018-02-18T05:31:33.404Z,65.20
2018-02-18T05:33:59.665Z,65.60
2018-02-18T05:36:25.848Z,65.50
2018-02-18T05:38:52.261Z,65.80
2018-02-18T05:41:19.218Z,65.70
2018-02-18T05:43:45.456Z,65.70
2018-02-18T05:46:12.665Z,65.20
2018-02-18T05:48:39.112Z,65.10
2018-02-18T05:51:05.361Z,65.60
2018-02-18T05:53:32.342Z,65.10
2018-02-18T05:55:58.695Z,65.10
2018-02-18T05:58:25.698Z,65.70
2018-02-18T06:00:51.889Z,65.70
2018-02-18T06:03:18.177Z,65.10
2018-02-18T06:05:44.529Z,64.70
2018-02-18T06:08:10.767Z,64.50
2018-02-18T06:10:36.975Z,64.70
2018-02-18T06:13:03.499Z,64.90
2018-02-18T06:15:29.679Z,65.50
2018-02-18T06:17:55.884Z,65.60
2018-02-18T06:20:22.242Z,65.10
2018-02-18T06:22:48.492Z,65.50
2018-02-18T06:25:15.524Z,65.70
2018-02-18T06:27:41.944Z,65.70
2018-02-18T06:30:08.147Z,65.60
2018-02-18T06:32:35.626Z,65.50
2018-02-18T06:35:03.936Z,64.90
2018-02-18T06:37:33.650Z,64.80
2018-02-18T06:40:00.900Z,64.80
2018-02-18T06:42:27.176Z,65.00
2018-02-18T06:44:54.546Z,65.40
2018-02-18T06:47:20.745Z,64.80
2018-02-18T06:49:47.698Z,65.00
2018-02-18T06:52:16.060Z,65.00
2018-02-18T06:54:42.454Z,66.20
2018-02-18T06:57:08.864Z,65.20
2018-02-18T06:59:35.197Z,64.80
2018-02-18T07:02:01.502Z,63.00
2018-02-18T07:04:27.849Z,63.40
2018-02-18T07:06:54.329Z,62.80
2018-02-18T07:09:20.589Z,60.90
2018-02-18T07:11:47.067Z,59.40
2018-02-18T07:14:13.337Z,59.60
2018-02-18T07:16:39.636Z,59.20
2018-02-18T07:19:06.004Z,59.80
2018-02-18T07:21:32.643Z,60.80
2018-02-18T07:24:00.006Z,61.80
2018-02-18T07:26:26.257Z,62.50
2018-02-18T07:28:52.552Z,63.20
2018-02-18T07:31:18.767Z,63.20
2018-02-18T07:33:44.955Z,63.20
2018-02-18T07:36:11.366Z,63.30
2018-02-18T07:38:37.565Z,63.30
2018-02-18T07:41:03.769Z,63.30
2018-02-18T07:43:30.268Z,63.40
2018-02-18T07:45:56.468Z,64.40
2018-02-18T07:48:22.689Z,64.50
2018-02-18T07:50:49.125Z,64.60
2018-02-18T07:53:15.372Z,64.40
2018-02-18T07:55:41.581Z,64.40
2018-02-18T07:58:08.614Z,65.00
2018-02-18T08:00:34.808Z,65.50
2018-02-18T08:03:01.044Z,66.00
2018-02-18T08:05:27.280Z,65.90
2018-02-18T08:07:53.529Z,65.70
2018-02-18T08:10:19.718Z,66.90
2018-02-18T08:12:46.232Z,66.00
2018-02-18T08:15:12.549Z,66.10
2018-02-18T08:17:38.841Z,66.20
2018-02-18T08:20:05.768Z,66.30
2018-02-18T08:22:33.674Z,66.30
2018-02-18T08:24:59.973Z,66.40
2018-02-18T08:27:26.163Z,66.30
2018-02-18T08:29:52.412Z,66.00
2018-02-18T08:32:18.895Z,66.30
2018-02-18T08:34:45.190Z,66.00
2018-02-18T08:37:11.937Z,66.10
2018-02-18T08:39:39.043Z,65.80
2018-02-18T08:42:05.294Z,65.80
2018-02-18T08:44:31.559Z,65.60
2018-02-18T08:46:57.963Z,65.60
2018-02-18T08:49:24.153Z,65.30
2018-02-18T08:51:50.325Z,64.90
2018-02-18T08:54:17.305Z,64.90
2018-02-18T08:56:43.764Z,64.90
2018-02-18T08:59:09.960Z,65.00
2018-02-18T09:01:37.075Z,65.10
2018-02-18T09:04:03.526Z,65.10
2018-02-18T09:06:29.769Z,65.10
2018-02-18T09:08:55.991Z,65.20
2018-02-18T09:11:22.402Z,64.60
2018-02-18T09:13:48.799Z,64.50
2018-02-18T09:16:15.001Z,64.20
2018-02-18T09:18:41.217Z,64.10
2018-02-18T09:21:07.504Z,64.10
2018-02-18T09:23:33.689Z,64.00
2018-02-18T09:26:00.038Z,61.90
2018-02-18T09:28:27.653Z,62.30
2018-02-18T09:30:53.955Z,62.10
2018-02-18T09:33:21.132Z,61.70
2018-02-18T09:35:47.427Z,61.70
2018-02-18T09:38:13.868Z,61.50
2018-02-18T09:40:40.086Z,60.50
2018-02-18T09:43:06.349Z,60.90
2018-02-18T09:45:33.478Z,60.40
2018-02-18T09:47:59.651Z,60.30
2018-02-18T09:50:25.844Z,60.00
2018-02-18T09:52:52.192Z,59.80
2018-02-18T09:55:18.394Z,59.70
2018-02-18T09:57:44.550Z,59.60
2018-02-18T10:00:11.485Z,59.60
2018-02-18T10:02:37.807Z,59.00
2018-02-18T10:05:04.008Z,58.40
2018-02-18T10:07:30.196Z,58.40
2018-02-18T10:09:56.527Z,58.50
2018-02-18T10:12:22.730Z,58.40
2018-02-18T10:14:48.997Z,58.00
2018-02-18T10:17:15.638Z,57.70
2018-02-18T10:19:41.835Z,57.00
2018-02-18T10:22:08.027Z,57.30
2018-02-18T10:24:35.478Z,57.40
2018-02-18T10:27:01.693Z,57.20
2018-02-18T10:29:29.790Z,57.00
2018-02-18T10:31:56.004Z,57.20
2018-02-18T10:34:22.669Z,57.10
2018-02-18T10:36:48.953Z,56.00
2018-02-18T10:39:15.189Z,55.80
2018-02-18T10:41:41.509Z,55.10
2018-02-18T10:44:08.481Z,55.10
2018-02-18T10:46:34.733Z,54.70
2018-02-18T10:49:02.738Z,54.50
2018-02-18T10:51:31.417Z,54.20
2018-02-18T10:53:58.184Z,54.20
2018-02-18T10:56:24.555Z,53.80
2018-02-18T10:58:51.578Z,53.00
2018-02-18T11:01:18.568Z,50.60
2018-02-18T11:03:45.313Z,50.60
2018-02-18T11:06:11.721Z,50.70
2018-02-18T11:08:38.021Z,49.80
2018-02-18T11:11:04.224Z,49.00
2018-02-18T11:13:30.844Z,49.00
2018-02-18T11:15:57.315Z,47.50
2018-02-18T11:18:23.551Z,48.80
2018-02-18T11:20:49.897Z,47.40
2018-02-18T11:23:16.282Z,47.10
2018-02-18T11:25:42.972Z,47.00
2018-02-18T11:28:09.878Z,44.30
2018-02-18T11:30:37.345Z,44.30
2018-02-18T11:33:03.711Z,44.80
2018-02-18T11:35:33.112Z,45.00
2018-02-18T11:37:59.264Z,45.00
2018-02-18T11:40:25.801Z,44.80
2018-02-18T11:42:52.343Z,44.30
2018-02-18T11:45:18.589Z,44.00
2018-02-18T11:47:44.782Z,42.50
2018-02-18T11:50:11.121Z,41.90
2018-02-18T11:52:37.397Z,42.90
2018-02-18T11:55:03.579Z,42.60
2018-02-18T11:57:29.981Z,41.10
2018-02-18T11:59:57.077Z,39.50
2018-02-18T12:02:24.081Z,39.10
2018-02-18T12:04:50.334Z,39.10
2018-02-18T12:07:16.564Z,39.80
2018-02-18T12:09:42.979Z,37.40
2018-02-18T12:12:09.156Z,36.70
2018-02-18T12:14:35.833Z,36.70
2018-02-18T12:17:02.016Z,35.50
2018-02-18T12:19:29.092Z,34.90
2018-02-18T12:21:55.682Z,34.80
2018-02-18T12:24:21.893Z,33.80
2018-02-18T12:26:48.075Z,30.20
2018-02-18T12:29:14.473Z,31.00
2018-02-18T12:31:40.929Z,30.20
2018-02-18T12:34:07.220Z,30.10
2018-02-18T12:36:33.418Z,30.40
2018-02-18T12:38:59.840Z,29.40
2018-02-18T12:41:26.031Z,28.80
2018-02-18T12:43:52.240Z,27.10
2018-02-18T12:46:19.417Z,26.80
2018-02-18T12:48:45.613Z,26.90
2018-02-18T12:51:11.841Z,26.50
2018-02-18T12:53:38.080Z,25.10
2018-02-18T12:56:04.316Z,25.10
2018-02-18T12:58:30.625Z,25.70
2018-02-18T13:00:56.930Z,26.50
2018-02-18T13:03:23.307Z,27.70
2018-02-18T13:05:49.537Z,26.00
2018-02-18T13:08:15.806Z,26.10
2018-02-18T13:10:42.019Z,26.00
2018-02-18T13:13:08.219Z,26.50
2018-02-18T13:15:34.652Z,27.10
2018-02-18T13:18:00.853Z,26.50
2018-02-18T13:20:27.078Z,26.40
2018-02-18T13:22:53.469Z,27.00
2018-02-18T13:25:19.675Z,26.10
2018-02-18T13:27:46.001Z,26.10
2018-02-18T13:30:12.500Z,27.10
2018-02-18T13:32:40.800Z,27.80
2018-02-18T13:35:06.989Z,27.30
2018-02-18T13:37:33.181Z,28.30
2018-02-18T13:39:59.569Z,28.30
2018-02-18T13:42:25.759Z,27.70
2018-02-18T13:44:52.011Z,27.90
2018-02-18T13:47:18.297Z,28.60
2018-02-18T13:49:44.493Z,27.20
2018-02-18T13:52:10.689Z,28.40
2018-02-18T13:54:36.909Z,28.80
2018-02-18T13:57:03.110Z,28.50
2018-02-18T13:59:29.351Z,27.20
2018-02-18T14:01:55.559Z,27.80
2018-02-18T14:04:21.815Z,27.80
2018-02-18T14:06:48.155Z,28.10
2018-02-18T14:09:14.357Z,26.70
2018-02-18T14:11:40.583Z,26.40
2018-02-18T14:14:06.788Z,26.60
2018-02-18T14:16:33.282Z,26.90
2018-02-18T14:18:59.784Z,26.90
2018-02-18T14:21:25.981Z,27.00
2018-02-18T14:23:52.212Z,27.30
2018-02-18T14:26:19.496Z,27.80
2018-02-18T14:28:45.724Z,27.70
2018-02-18T14:31:11.954Z,28.10
2018-02-18T14:33:38.914Z,27.30
2018-02-18T14:36:05.423Z,27.30
2018-02-18T14:38:31.690Z,27.50
2018-02-18T14:40:58.611Z,28.10
2018-02-18T14:43:37.026Z,28.10
2018-02-18T14:46:15.403Z,27.90
2018-02-18T14:48:54.643Z,28.80
2018-02-18T14:51:33.107Z,28.70
2018-02-18T14:54:11.616Z,28.70
2018-02-18T14:56:50.748Z,27.20
2018-02-18T14:59:17.007Z,27.10
2018-02-18T15:01:43.196Z,27.50
2018-02-18T15:04:09.822Z,26.50
2018-02-18T15:06:36.021Z,26.20
2018-02-18T15:09:02.998Z,27.40
2018-02-18T15:11:29.244Z,27.40
2018-02-18T15:13:56.636Z,27.00
2018-02-18T15:16:22.871Z,27.40
2018-02-18T15:18:49.068Z,27.10
2018-02-18T15:21:16.210Z,28.40
2018-02-18T15:23:42.388Z,28.30
2018-02-18T15:26:08.580Z,27.80
2018-02-18T15:28:34.881Z,28.00
2018-02-18T15:31:01.112Z,27.90
2018-02-18T15:33:27.276Z,27.30
2018-02-18T15:35:54.399Z,28.30
2018-02-18T15:38:21.641Z,28.00
2018-02-18T15:40:47.885Z,27.80
2018-02-18T15:43:18.760Z,28.30
2018-02-18T15:45:45.721Z,27.80
2018-02-18T15:48:12.656Z,28.10
2018-02-18T15:50:39.640Z,28.80
2018-02-18T15:53:06.077Z,28.80
2018-02-18T15:55:35.142Z,28.60
2018-02-18T15:58:01.372Z,28.80
2018-02-18T16:00:27.633Z,29.30
2018-02-18T16:02:53.922Z,29.50
2018-02-18T16:05:21.078Z,30.20
2018-02-18T16:07:48.027Z,30.00
2018-02-18T16:10:14.213Z,30.00
2018-02-18T16:12:40.561Z,31.10
2018-02-18T16:15:06.772Z,30.00
2018-02-18T16:17:32.985Z,30.70
2018-02-18T16:19:59.380Z,30.70
2018-02-18T16:22:25.618Z,30.80
2018-02-18T16:24:51.796Z,31.50
2018-02-18T16:27:24.776Z,32.70
2018-02-18T16:29:50.997Z,32.10
2018-02-18T16:32:17.258Z,32.00
2018-02-18T16:34:43.548Z,32.60
2018-02-18T16:37:10.535Z,33.80
2018-02-18T16:39:36.744Z,33.90
2018-02-18T16:42:03.746Z,34.10
2018-02-18T16:44:31.409Z,34.60
2018-02-18T16:46:57.645Z,34.60
2018-02-18T16:49:23.852Z,34.20
2018-02-18T16:51:50.656Z,34.30
2018-02-18T16:54:17.679Z,35.50
2018-02-18T16:56:44.661Z,35.80
2018-02-18T16:59:10.856Z,35.90
2018-02-18T17:01:37.149Z,35.10
2018-02-18T17:04:03.379Z,36.60
2018-02-18T17:06:29.594Z,36.30
2018-02-18T17:08:56.092Z,36.30
2018-02-18T17:11:22.321Z,36.80
2018-02-18T17:13:48.530Z,36.70
2018-02-18T17:16:15.479Z,37.80
2018-02-18T17:18:41.719Z,37.60
2018-02-18T17:21:08.725Z,37.90
2018-02-18T17:23:34.904Z,37.90
2018-02-18T17:26:01.173Z,38.00
2018-02-18T17:28:28.105Z,39.70
2018-02-18T17:30:54.350Z,39.70
2018-02-18T17:33:20.714Z,39.40
2018-02-18T17:35:47.783Z,39.50
2018-02-18T17:38:13.985Z,39.50
2018-02-18T17:40:40.221Z,40.10
2018-02-18T17:43:07.219Z,40.20
2018-02-18T17:45:34.183Z,40.90
2018-02-18T17:48:01.149Z,41.60
2018-02-18T17:50:33.391Z,41.60
2018-02-18T17:52:59.640Z,42.00
2018-02-18T17:55:25.841Z,42.40
2018-02-18T17:57:52.385Z,42.60
2018-02-18T18:00:19.077Z,43.50
2018-02-18T18:02:46.066Z,44.00
2018-02-18T18:05:12.571Z,44.00
2018-02-18T18:07:38.956Z,44.00
2018-02-18T18:10:05.906Z,44.50
2018-02-18T18:12:32.829Z,45.00
2018-02-18T18:14:59.016Z,45.00
2018-02-18T18:17:25.217Z,45.20
2018-02-18T18:19:51.416Z,45.70
2018-02-18T18:22:17.728Z,45.80
2018-02-18T18:24:43.948Z,46.00
2018-02-18T18:27:11.205Z,46.40
2018-02-18T18:29:37.497Z,46.30
2018-02-18T18:32:03.960Z,46.40
2018-02-18T18:34:30.160Z,46.90
2018-02-18T18:36:57.109Z,47.60
2018-02-18T18:39:23.380Z,47.20
2018-02-18T18:41:49.672Z,48.70
2018-02-18T18:44:19.401Z,48.00
2018-02-18T18:46:45.692Z,47.50
2018-02-18T18:49:11.894Z,48.00
2018-02-18T18:51:38.841Z,48.00
2018-02-18T18:54:05.252Z,48.00
2018-02-18T18:56:33.553Z,48.00
2018-02-18T18:58:59.819Z,48.00
2018-02-18T19:01:27.168Z,47.90
2018-02-18T19:03:53.556Z,47.90
2018-02-18T19:06:20.500Z,49.30
2018-02-18T19:08:46.939Z,48.40
2018-02-18T19:11:13.334Z,48.10
2018-02-18T19:13:39.525Z,48.30
2018-02-18T19:16:06.178Z,48.90
2018-02-18T19:18:32.406Z,49.40
2018-02-18T19:20:58.633Z,49.20
2018-02-18T19:23:25.889Z,49.30
2018-02-18T19:25:52.165Z,49.80
2018-02-18T19:28:18.731Z,49.80
2018-02-18T19:30:45.718Z,49.70
2018-02-18T19:33:11.967Z,50.10
2018-02-18T19:35:38.190Z,49.80
2018-02-18T19:38:04.550Z,50.50
2018-02-18T19:40:30.852Z,50.90
2018-02-18T19:42:57.101Z,50.60
2018-02-18T19:45:23.478Z,51.40
2018-02-18T19:47:49.729Z,51.40
2018-02-18T19:50:15.916Z,50.80
2018-02-18T19:52:43.375Z,51.10
2018-02-18T19:55:09.556Z,51.70
2018-02-18T19:57:35.763Z,51.70
2018-02-18T20:00:02.155Z,52.60
2018-02-18T20:02:29.718Z,51.90
2018-02-18T20:04:56.158Z,51.80
2018-02-18T20:07:22.453Z,52.00
2018-02-18T20:09:49.721Z,51.70
2018-02-18T20:12:16.215Z,52.30
2018-02-18T20:14:42.439Z,52.20
2018-02-18T20:17:09.390Z,52.70
2018-02-18T20:19:35.794Z,52.70
2018-02-18T20:22:02.038Z,52.80
2018-02-18T20:24:28.373Z,52.80
2018-02-18T20:26:55.247Z,52.70
2018-02-18T20:29:22.607Z,53.30
2018-02-18T20:31:48.831Z,53.00
2018-02-18T20:34:15.053Z,53.30
2018-02-18T20:36:41.896Z,52.80
2018-02-18T20:39:08.272Z,53.30
2018-02-18T20:41:34.587Z,53.20
2018-02-18T20:44:01.310Z,53.50
2018-02-18T20:46:27.632Z,54.60
2018-02-18T20:48:53.861Z,55.60
2018-02-18T20:51:20.301Z,55.20
2018-02-18T20:53:46.877Z,54.90
2018-02-18T20:56:13.142Z,55.50
2018-02-18T20:58:39.491Z,55.50
2018-02-18T21:01:06.537Z,55.80
2018-02-18T21:03:32.900Z,55.80
2018-02-18T21:06:02.332Z,56.70
2018-02-18T21:08:31.634Z,56.70
2018-02-18T21:10:58.043Z,56.70
2018-02-18T21:13:37.359Z,57.10
2018-02-18T21:16:03.621Z,57.30
2018-02-18T21:18:29.850Z,57.40
2018-02-18T21:20:56.044Z,56.90
2018-02-18T21:23:23.128Z,56.20
2018-02-18T21:25:49.312Z,56.20
2018-02-18T21:28:15.515Z,56.40
2018-02-18T21:30:42.080Z,56.80
2018-02-18T21:33:08.274Z,57.30
2018-02-18T21:35:35.228Z,57.30
2018-02-18T21:38:02.479Z,57.30
2018-02-18T21:40:30.854Z,57.00
2018-02-18T21:42:57.225Z,57.00
2018-02-18T21:45:23.431Z,56.00
2018-02-18T21:47:49.637Z,56.30
2018-02-18T21:50:16.117Z,56.30
2018-02-18T21:52:42.312Z,55.80
2018-02-18T21:55:09.228Z,56.20
2018-02-18T21:57:35.523Z,56.20
2018-02-18T22:00:01.701Z,55.90
2018-02-18T22:02:27.910Z,56.00
2018-02-18T22:04:54.281Z,56.50
2018-02-18T22:07:20.460Z,56.00
2018-02-18T22:09:47.364Z,56.40
2018-02-18T22:12:13.575Z,56.00
2018-02-18T22:14:39.796Z,56.00
2018-02-18T22:17:06.773Z,56.00
2018-02-18T22:19:33.809Z,56.00
2018-02-18T22:22:00.133Z,56.00
2018-02-18T22:24:26.335Z,55.70
2018-02-18T22:26:52.529Z,56.10
2018-02-18T22:29:18.946Z,56.00
2018-02-18T22:31:45.197Z,56.00
2018-02-18T22:34:11.411Z,56.10
2018-02-18T22:36:37.817Z,55.80
2018-02-18T22:39:05.098Z,55.20
2018-02-18T22:41:32.016Z,55.80
2018-02-18T22:43:58.287Z,55.80
2018-02-18T22:46:24.705Z,55.50
2018-02-18T22:48:50.921Z,55.20
2018-02-18T22:51:17.120Z,55.60
2018-02-18T22:53:43.540Z,56.20
2018-02-18T22:56:09.813Z,56.20
2018-02-18T22:58:36.895Z,56.10
2018-02-18T23:01:03.092Z,55.90
2018-02-18T23:03:29.535Z,56.10
2018-02-18T23:05:55.711Z,56.00
2018-02-18T23:08:21.920Z,55.70
2018-02-18T23:10:48.633Z,56.20
2018-02-18T23:13:14.850Z,54.80
2018-02-18T23:15:41.008Z,56.10
2018-02-18T23:18:07.378Z,56.10
2018-02-18T23:20:45.684Z,56.20
2018-02-18T23:23:12.052Z,56.10
2018-02-18T23:25:38.220Z,55.10
2018-02-18T23:28:05.155Z,56.10
2018-02-18T23:30:32.453Z,56.10
2018-02-18T23:32:58.860Z,56.20
2018-02-18T23:35:25.046Z,56.00
2018-02-18T23:37:51.229Z,56.10
2018-02-18T23:40:17.705Z,56.00
2018-02-18T23:42:44.767Z,55.70
2018-02-18T23:45:11.715Z,56.00
2018-02-18T23:47:37.928Z,56.00
2018-02-18T23:50:04.419Z,56.00
2018-02-18T23:52:30.629Z,57.20
2018-02-18T23:54:56.800Z,56.80
2018-02-18T23:57:23.856Z,56.20
2018-02-18T23:59:50.168Z,56.20
